Time;durP1;ratioP1;P1;durP2;ratioP2;P2;SDS_P1;SDS_P2;PMS_P1;PMS_P2;Temp;Humidity;BMP_temperature;BMP_pressure;BME280_temperature;BME280_humidity;BME280_pressure;Samples;Min_cycle;Max_cycle;Signal;HPM_P1;HPM_P2
2021/09/13 00:00:03;;;;;;;;;;;;;;;23.43;59.06;99545.69;2059704;28;19936;-42
2021/09/13 00:01:04;;;;;;;;;;;;;;;23.45;58.93;99543.63;2063033;28;20708;-41
2021/09/13 00:02:07;;;;;;;;;;;;;;;23.45;59.02;99538.13;2060703;28;19939;-41
2021/09/13 00:03:07;;;;;;;;;;;;;;;23.45;59.01;99538.13;2058640;28;20127;-41
2021/09/13 00:04:07;;;;;;;;;;;;;;;23.45;59.02;99538.13;2066699;28;19912;-42
2021/09/13 00:05:08;;;;;;;;;;;;;;;23.46;58.92;99539.81;2054861;28;19917;-42
2021/09/13 00:06:09;;;;;;;;;;;;;;;23.45;58.99;99540.88;2062126;28;20203;-42
2021/09/13 00:07:09;;;;;;;;;;;;;;;23.45;58.91;99543.63;2061721;28;19932;-42
2021/09/13 00:08:09;;;;;;;;;;;;;;;23.47;58.91;99543.41;2057928;28;20765;-41
2021/09/13 00:09:10;;;;;;;;;;;;;;;23.45;59.04;99543.63;2060943;28;19955;-41
2021/09/13 00:10:10;;;;;;;;;;;;;;;23.45;59.00;99538.13;2065159;28;19925;-42
2021/09/13 00:11:11;;;;;;;;;;;;;;;23.45;59.10;99548.28;2065094;28;19909;-42
2021/09/13 00:12:11;;;;;;;;;;;;;;;23.45;59.02;99543.63;2055982;28;19917;-41
2021/09/13 00:13:11;;;;;;;;;;;;;;;23.44;58.96;99536.38;2061009;28;19963;-41
2021/09/13 00:14:12;;;;;;;;;;;;;;;23.44;59.03;99541.88;2060889;28;19909;-42
2021/09/13 00:15:12;;;;;;;;;;;;;;;23.44;59.10;99541.88;2057962;28;19968;-42
2021/09/13 00:16:13;;;;;;;;;;;;;;;23.45;59.04;99545.53;2060493;28;20841;-42
2021/09/13 00:17:13;;;;;;;;;;;;;;;23.45;59.00;99540.88;2057816;28;19917;-42
2021/09/13 00:18:13;;;;;;;;;;;;;;;23.45;59.01;99538.13;2061280;28;20622;-41
2021/09/13 00:19:14;;;;;;;;;;;;;;;23.45;59.06;99543.63;2060165;28;20517;-41
2021/09/13 00:20:14;;;;;;;;;;;;;;;23.45;59.09;99538.13;2058427;28;20106;-42
2021/09/13 00:21:14;;;;;;;;;;;;;;;23.45;59.06;99540.88;2060371;28;19924;-41
2021/09/13 00:22:15;;;;;;;;;;;;;;;23.45;59.01;99549.13;2063813;28;19920;-42
2021/09/13 00:23:15;;;;;;;;;;;;;;;23.44;59.11;99536.38;2059755;28;19943;-42
2021/09/13 00:24:15;;;;;;;;;;;;;;;23.45;59.01;99548.28;2062361;28;19909;-42
2021/09/13 00:25:15;;;;;;;;;;;;;;;23.44;59.03;99539.13;2058180;28;19913;-41
2021/09/13 00:26:16;;;;;;;;;;;;;;;23.44;59.13;99535.53;2066816;28;20246;-42
2021/09/13 00:27:16;;;;;;;;;;;;;;;23.44;59.03;99547.38;2059181;28;19910;-41
2021/09/13 00:28:16;;;;;;;;;;;;;;;23.45;59.06;99542.78;2059398;28;20487;-42
2021/09/13 00:29:17;;;;;;;;;;;;;;;23.43;59.01;99540.19;2067005;28;20239;-42
2021/09/13 00:30:17;;;;;;;;;;;;;;;23.45;59.10;99549.13;2054392;28;19918;-42
2021/09/13 00:31:17;;;;;;;;;;;;;;;23.45;58.96;99538.13;2064824;28;19919;-42
2021/09/13 00:32:17;;;;;;;;;;;;;;;23.44;59.03;99541.88;2059493;28;19967;-41
2021/09/13 00:33:18;;;;;;;;;;;;;;;23.44;59.09;99541.88;2057246;28;20024;-42
2021/09/13 00:34:18;;;;;;;;;;;;;;;23.44;59.00;99533.63;2066181;28;19916;-42
2021/09/13 00:35:18;;;;;;;;;;;;;;;23.44;59.00;99541.03;2059051;28;19913;-42
2021/09/13 00:36:19;;;;;;;;;;;;;;;23.44;59.09;99536.38;2059784;28;19964;-42
2021/09/13 00:37:19;;;;;;;;;;;;;;;23.44;59.11;99536.38;2052678;28;19914;-42
2021/09/13 00:38:19;;;;;;;;;;;;;;;23.44;59.11;99535.53;2053817;28;19921;-42
2021/09/13 00:39:19;;;;;;;;;;;;;;;23.43;59.05;99534.69;2061081;28;19923;-42
2021/09/13 00:40:20;;;;;;;;;;;;;;;23.44;59.12;99530.03;2056265;28;19917;-42
2021/09/13 00:41:21;;;;;;;;;;;;;;;23.43;59.05;99537.44;2059967;28;19917;-42
2021/09/13 00:42:21;;;;;;;;;;;;;;;23.44;59.03;99530.88;2058361;28;19925;-42
2021/09/13 00:43:21;;;;;;;;;;;;;;;23.44;59.02;99532.78;2063017;28;19917;-42
2021/09/13 00:44:22;;;;;;;;;;;;;;;23.43;59.10;99531.94;2063591;28;19948;-42
2021/09/13 00:45:22;;;;;;;;;;;;;;;23.44;59.00;99530.88;2060229;28;20250;-42
2021/09/13 00:46:22;;;;;;;;;;;;;;;23.45;58.94;99531.78;2059899;28;19952;-42
2021/09/13 00:47:22;;;;;;;;;;;;;;;23.46;59.01;99530.72;2059961;28;19917;-42
2021/09/13 00:48:24;;;;;;;;;;;;;;;23.46;59.06;99533.47;2058713;28;19995;-41
2021/09/13 00:49:24;;;;;;;;;;;;;;;23.44;58.93;99530.88;2065653;28;19988;-43
2021/09/13 00:50:24;;;;;;;;;;;;;;;23.44;59.08;99530.88;2057760;28;20263;-42
2021/09/13 00:51:24;;;;;;;;;;;;;;;23.44;59.05;99525.38;2061045;28;19996;-42
2021/09/13 00:52:25;;;;;;;;;;;;;;;23.44;59.02;99527.28;2065822;28;20744;-42
2021/09/13 00:53:25;;;;;;;;;;;;;;;23.44;59.08;99525.38;2059711;28;19914;-42
2021/09/13 00:54:26;;;;;;;;;;;;;;;23.44;59.11;99521.78;2060230;28;19993;-42
2021/09/13 00:55:26;;;;;;;;;;;;;;;23.43;59.04;99529.19;2058363;28;20016;-42
2021/09/13 00:56:26;;;;;;;;;;;;;;;23.42;59.09;99530.25;2058890;28;20214;-42
2021/09/13 00:57:27;;;;;;;;;;;;;;;23.43;59.18;99534.69;2059301;28;20622;-42
2021/09/13 00:58:28;;;;;;;;;;;;;;;23.44;59.05;99525.38;2058271;28;19925;-42
2021/09/13 00:59:28;;;;;;;;;;;;;;;23.44;59.08;99524.53;2060875;28;19921;-42
2021/09/13 01:00:29;;;;;;;;;;;;;;;23.43;59.17;99529.19;2058288;28;19917;-42
2021/09/13 01:01:29;;;;;;;;;;;;;;;23.43;59.03;99523.69;2056739;28;19997;-42
2021/09/13 01:02:30;;;;;;;;;;;;;;;23.45;59.00;99526.25;2058972;28;19953;-42
2021/09/13 01:03:30;;;;;;;;;;;;;;;23.44;58.99;99522.63;2055891;28;20574;-42
2021/09/13 01:04:31;;;;;;;;;;;;;;;23.43;59.03;99520.94;2061039;28;19917;-41
2021/09/13 01:05:31;;;;;;;;;;;;;;;23.43;59.10;99523.69;2066732;28;19913;-42
2021/09/13 01:06:31;;;;;;;;;;;;;;;23.43;59.02;99523.69;2060147;28;19913;-42
2021/09/13 01:07:32;;;;;;;;;;;;;;;23.42;59.13;99524.75;2060068;28;19921;-42
2021/09/13 01:08:32;;;;;;;;;;;;;;;23.42;59.05;99522.00;2056122;28;19926;-42
2021/09/13 01:09:33;;;;;;;;;;;;;;;23.43;59.10;99526.44;2060897;28;19924;-42
2021/09/13 01:10:33;;;;;;;;;;;;;;;23.43;59.05;99528.34;2061189;28;19986;-42
2021/09/13 01:11:34;;;;;;;;;;;;;;;23.43;59.12;99529.19;2056124;28;20351;-40
2021/09/13 01:12:35;;;;;;;;;;;;;;;23.44;59.09;99524.53;2060230;28;19913;-42
2021/09/13 01:13:35;;;;;;;;;;;;;;;23.42;59.06;99522.00;2060755;28;20311;-41
2021/09/13 01:14:39;;;;;;;;;;;;;;;23.43;59.03;99526.44;2060669;28;19917;-41
2021/09/13 01:15:40;;;;;;;;;;;;;;;23.44;59.07;99524.53;2062360;28;20255;-42
2021/09/13 01:16:41;;;;;;;;;;;;;;;23.43;59.00;99526.44;2058294;28;19967;-42
2021/09/13 01:17:41;;;;;;;;;;;;;;;23.44;59.02;99530.88;2059634;28;19928;-41
2021/09/13 01:18:41;;;;;;;;;;;;;;;23.43;59.04;99534.69;2058565;28;19960;-41
2021/09/13 01:19:42;;;;;;;;;;;;;;;23.42;59.10;99527.50;2058654;28;20337;-41
2021/09/13 01:20:42;;;;;;;;;;;;;;;23.42;59.06;99530.25;2060080;28;20043;-41
2021/09/13 01:21:43;;;;;;;;;;;;;;;23.43;59.12;99529.19;2060324;28;19921;-42
2021/09/13 01:22:46;;;;;;;;;;;;;;;23.43;59.04;99523.69;2060200;28;19928;-41
2021/09/13 01:23:46;;;;;;;;;;;;;;;23.44;59.07;99532.78;2058190;28;19913;-41
2021/09/13 01:24:47;;;;;;;;;;;;;;;23.42;59.12;99522.00;2058610;28;19949;-41
2021/09/13 01:25:47;;;;;;;;;;;;;;;23.44;59.11;99532.78;2059880;28;20007;-41
2021/09/13 01:26:47;;;;;;;;;;;;;;;23.43;59.08;99533.84;2058949;28;19969;-40
2021/09/13 01:27:48;;;;;;;;;;;;;;;23.43;59.03;99534.69;2064592;28;19913;-43
2021/09/13 01:28:48;;;;;;;;;;;;;;;23.42;59.11;99527.50;2064501;28;19923;-41
2021/09/13 01:29:48;;;;;;;;;;;;;;;23.43;59.02;99528.34;2060602;28;19923;-41
2021/09/13 01:30:49;;;;;;;;;;;;;;;23.43;59.06;99531.94;2059925;28;20419;-41
2021/09/13 01:31:50;;;;;;;;;;;;;;;23.44;59.03;99536.38;2055852;28;20335;-41
2021/09/13 01:32:50;;;;;;;;;;;;;;;23.42;59.10;99533.00;2065044;28;20389;-41
2021/09/13 01:33:51;;;;;;;;;;;;;;;23.43;59.12;99533.84;2059635;28;19971;-41
2021/09/13 01:34:51;;;;;;;;;;;;;;;23.42;59.09;99535.75;2058666;28;20012;-42
2021/09/13 01:35:51;;;;;;;;;;;;;;;23.42;59.08;99532.13;2058867;28;19918;-41
2021/09/13 01:36:52;;;;;;;;;;;;;;;23.42;59.19;99524.75;2058610;28;19917;-47
2021/09/13 01:37:52;;;;;;;;;;;;;;;23.43;59.10;99529.19;2062819;28;20741;-46
2021/09/13 01:38:52;;;;;;;;;;;;;;;23.44;59.02;99532.78;2054332;28;20032;-47
2021/09/13 01:39:53;;;;;;;;;;;;;;;23.43;59.20;99529.19;2059542;28;20235;-46
2021/09/13 01:40:53;;;;;;;;;;;;;;;23.44;59.09;99533.63;2066933;28;20314;-49
2021/09/13 01:41:53;;;;;;;;;;;;;;;23.42;59.18;99530.25;2063269;28;19917;-42
2021/09/13 01:43:00;;;;;;;;;;;;;;;23.42;59.17;99534.88;2059258;28;19917;-42
2021/09/13 01:44:04;;;;;;;;;;;;;;;23.43;59.17;99528.34;2062078;28;19932;-41
2021/09/13 01:45:04;;;;;;;;;;;;;;;23.42;59.20;99527.50;2057930;28;20437;-42
2021/09/13 01:46:05;;;;;;;;;;;;;;;23.42;59.16;99533.00;2053012;28;20008;-41
2021/09/13 01:47:05;;;;;;;;;;;;;;;23.42;59.16;99538.50;2056931;28;20409;-43
2021/09/13 01:48:06;;;;;;;;;;;;;;;23.42;59.12;99524.75;2062145;28;19913;-42
2021/09/13 01:49:07;;;;;;;;;;;;;;;23.43;59.11;99533.84;2060991;28;19913;-42
2021/09/13 01:50:07;;;;;;;;;;;;;;;23.42;59.08;99521.13;2057713;28;20354;-42
2021/09/13 01:51:08;;;;;;;;;;;;;;;23.42;59.20;99527.50;2060894;28;19916;-42
2021/09/13 01:52:09;;;;;;;;;;;;;;;23.41;59.20;99528.53;2057316;28;19944;-42
2021/09/13 01:53:09;;;;;;;;;;;;;;;23.43;59.16;99522.84;2067942;28;19905;-42
2021/09/13 01:54:10;;;;;;;;;;;;;;;23.41;59.12;99527.69;2059325;28;20243;-42
2021/09/13 01:55:10;;;;;;;;;;;;;;;23.41;59.08;99525.78;2059374;28;19906;-42
2021/09/13 01:56:11;;;;;;;;;;;;;;;23.41;59.15;99519.44;2064414;28;19901;-42
2021/09/13 01:57:11;;;;;;;;;;;;;;;23.41;59.10;99525.78;2062677;28;19967;-41
2021/09/13 01:58:11;;;;;;;;;;;;;;;23.40;59.21;99524.09;2059110;28;19968;-42
2021/09/13 01:59:12;;;;;;;;;;;;;;;23.41;59.06;99525.78;2058828;28;19916;-42
2021/09/13 02:00:13;;;;;;;;;;;;;;;23.41;59.19;99524.94;2059694;28;19948;-42
2021/09/13 02:01:13;;;;;;;;;;;;;;;23.41;59.13;99525.78;2061730;28;20275;-42
2021/09/13 02:02:13;;;;;;;;;;;;;;;23.42;59.22;99521.13;2059760;28;19921;-42
2021/09/13 02:03:14;;;;;;;;;;;;;;;23.41;59.18;99513.94;2060167;28;20019;-42
2021/09/13 02:04:14;;;;;;;;;;;;;;;23.41;59.20;99520.28;2066653;28;19917;-42
2021/09/13 02:05:14;;;;;;;;;;;;;;;23.40;59.21;99515.84;2058900;28;19918;-41
2021/09/13 02:06:15;;;;;;;;;;;;;;;23.40;59.13;99515.84;2062278;28;20271;-42
2021/09/13 02:07:15;;;;;;;;;;;;;;;23.42;59.18;99521.13;2056380;28;19943;-42
2021/09/13 02:08:15;;;;;;;;;;;;;;;23.41;59.22;99522.19;2063443;28;20598;-42
2021/09/13 02:09:16;;;;;;;;;;;;;;;23.42;59.11;99524.75;2059479;28;20307;-41
2021/09/13 02:10:17;;;;;;;;;;;;;;;23.41;59.20;99514.78;2060140;28;20080;-42
2021/09/13 02:11:17;;;;;;;;;;;;;;;23.41;59.14;99517.53;2068591;28;19936;-42
2021/09/13 02:12:18;;;;;;;;;;;;;;;23.41;59.24;99516.69;2056344;28;19964;-42
2021/09/13 02:13:19;;;;;;;;;;;;;;;23.40;59.29;99524.09;2066046;28;19921;-42
2021/09/13 02:14:19;;;;;;;;;;;;;;;23.40;59.19;99518.59;2061082;28;19981;-42
2021/09/13 02:15:19;;;;;;;;;;;;;;;23.42;59.11;99526.63;2057933;28;20221;-42
2021/09/13 02:16:20;;;;;;;;;;;;;;;23.40;59.16;99524.09;2069953;28;19924;-42
2021/09/13 02:17:20;;;;;;;;;;;;;;;23.41;59.18;99525.78;2061557;28;20008;-41
2021/09/13 02:18:21;;;;;;;;;;;;;;;23.40;59.20;99515.84;2060009;28;19921;-42
2021/09/13 02:19:21;;;;;;;;;;;;;;;23.40;59.12;99515.00;2069261;28;20315;-42
2021/09/13 02:20:21;;;;;;;;;;;;;;;23.42;59.15;99518.38;2062544;28;19917;-43
2021/09/13 02:21:22;;;;;;;;;;;;;;;23.42;59.18;99516.50;2069340;28;19917;-47
2021/09/13 02:22:22;;;;;;;;;;;;;;;23.40;59.09;99513.09;2059589;28;19956;-47
2021/09/13 02:23:22;;;;;;;;;;;;;;;23.41;59.24;99513.94;2062164;28;20255;-47
2021/09/13 02:24:23;;;;;;;;;;;;;;;23.41;59.07;99505.69;2070011;28;20024;-48
2021/09/13 02:25:23;;;;;;;;;;;;;;;23.40;59.18;99513.09;2059702;28;19917;-48
2021/09/13 02:26:23;;;;;;;;;;;;;;;23.40;59.24;99513.09;2061457;28;19917;-48
2021/09/13 02:27:24;;;;;;;;;;;;;;;23.39;59.06;99511.38;2058355;28;19917;-48
2021/09/13 02:28:24;;;;;;;;;;;;;;;23.41;59.15;99511.19;2064742;28;19939;-49
2021/09/13 02:29:24;;;;;;;;;;;;;;;23.41;59.18;99513.94;2056048;28;19917;-48
2021/09/13 02:30:25;;;;;;;;;;;;;;;23.41;59.20;99512.03;2056253;28;19913;-48
2021/09/13 02:31:26;;;;;;;;;;;;;;;23.40;59.16;99513.09;2063147;28;19913;-49
2021/09/13 02:32:27;;;;;;;;;;;;;;;23.41;59.23;99506.53;2058588;28;19917;-48
2021/09/13 02:33:27;;;;;;;;;;;;;;;23.40;59.20;99509.50;2064701;28;20294;-48
2021/09/13 02:34:28;;;;;;;;;;;;;;;23.41;59.20;99506.53;2059954;28;20163;-48
2021/09/13 02:35:28;;;;;;;;;;;;;;;23.41;59.22;99505.69;2061553;28;19953;-48
2021/09/13 02:36:29;;;;;;;;;;;;;;;23.41;59.14;99508.44;2059483;28;19976;-48
2021/09/13 02:37:29;;;;;;;;;;;;;;;23.41;59.21;99503.78;2065741;28;20352;-48
2021/09/13 02:38:29;;;;;;;;;;;;;;;23.40;59.12;99507.59;2060876;28;19988;-48
2021/09/13 02:39:30;;;;;;;;;;;;;;;23.40;59.26;99507.59;2058546;28;19972;-48
2021/09/13 02:40:30;;;;;;;;;;;;;;;23.42;59.12;99510.13;2060487;28;19917;-49
2021/09/13 02:41:30;;;;;;;;;;;;;;;23.40;59.09;99507.59;2054619;28;21406;-48
2021/09/13 02:42:31;;;;;;;;;;;;;;;23.41;59.20;99514.78;2058878;28;19956;-48
2021/09/13 02:43:31;;;;;;;;;;;;;;;23.40;59.12;99512.25;2064129;28;20731;-50
2021/09/13 02:44:31;;;;;;;;;;;;;;;23.41;59.18;99512.03;2055566;28;20112;-48
2021/09/13 02:45:31;;;;;;;;;;;;;;;23.41;59.14;99509.28;2065096;28;19967;-48
2021/09/13 02:46:32;;;;;;;;;;;;;;;23.41;59.04;99509.28;2059829;28;19913;-48
2021/09/13 02:47:32;;;;;;;;;;;;;;;23.40;59.07;99513.09;2054044;28;19918;-48
2021/09/13 02:48:32;;;;;;;;;;;;;;;23.40;59.09;99506.75;2061186;28;19917;-48
2021/09/13 02:49:33;;;;;;;;;;;;;;;23.40;59.17;99501.25;2055841;28;19917;-48
2021/09/13 02:50:33;;;;;;;;;;;;;;;23.40;59.22;99501.25;2069483;28;19916;-48
2021/09/13 02:51:33;;;;;;;;;;;;;;;23.39;59.12;99508.63;2055046;28;19983;-48
2021/09/13 02:52:34;;;;;;;;;;;;;;;23.39;59.15;99505.88;2064735;28;19955;-48
2021/09/13 02:53:35;;;;;;;;;;;;;;;23.39;59.05;99511.38;2061358;28;19959;-48
2021/09/13 02:54:36;;;;;;;;;;;;;;;23.40;59.07;99518.59;2060426;28;20023;-48
2021/09/13 02:55:36;;;;;;;;;;;;;;;23.40;59.13;99513.09;2061236;28;19917;-48
2021/09/13 02:56:37;;;;;;;;;;;;;;;23.41;59.18;99523.03;2059187;28;20072;-48
2021/09/13 02:57:38;;;;;;;;;;;;;;;23.40;59.21;99515.84;2061689;28;19957;-48
2021/09/13 02:58:38;;;;;;;;;;;;;;;23.40;59.22;99512.25;2061211;28;19921;-48
2021/09/13 02:59:38;;;;;;;;;;;;;;;23.40;59.30;99517.75;2060817;28;19917;-48
2021/09/13 03:00:39;;;;;;;;;;;;;;;23.39;59.10;99510.50;2058290;28;19917;-48
2021/09/13 03:01:39;;;;;;;;;;;;;;;23.41;59.07;99508.44;2067283;28;19945;-48
2021/09/13 03:02:39;;;;;;;;;;;;;;;23.41;59.21;99513.94;2060112;28;19916;-48
2021/09/13 03:03:41;;;;;;;;;;;;;;;23.40;59.06;99513.09;2061999;28;19932;-48
2021/09/13 03:04:41;;;;;;;;;;;;;;;23.39;59.16;99511.38;2060417;28;19976;-48
2021/09/13 03:05:41;;;;;;;;;;;;;;;23.39;59.06;99511.38;2060784;28;20696;-48
2021/09/13 03:06:42;;;;;;;;;;;;;;;23.40;59.07;99510.34;2060397;28;19960;-48
2021/09/13 03:07:42;;;;;;;;;;;;;;;23.38;59.13;99504.16;2064921;28;19925;-48
2021/09/13 03:08:42;;;;;;;;;;;;;;;23.39;59.01;99514.13;2065662;28;19921;-48
2021/09/13 03:09:43;;;;;;;;;;;;;;;23.38;59.10;99509.66;2056256;28;19924;-48
2021/09/13 03:10:43;;;;;;;;;;;;;;;23.39;59.07;99494.84;2068958;28;19916;-49
2021/09/13 03:11:44;;;;;;;;;;;;;;;23.39;59.12;99500.38;2060110;28;19925;-48
2021/09/13 03:12:44;;;;;;;;;;;;;;;23.39;59.16;99491.25;2057179;28;19961;-48
2021/09/13 03:13:44;;;;;;;;;;;;;;;23.40;59.13;99491.09;2060520;28;19967;-48
2021/09/13 03:14:45;;;;;;;;;;;;;;;23.40;59.07;99495.75;2059169;28;19917;-48
2021/09/13 03:15:45;;;;;;;;;;;;;;;23.39;59.06;99494.84;2063267;28;20011;-48
2021/09/13 03:16:45;;;;;;;;;;;;;;;23.39;59.09;99494.84;2058514;28;20570;-48
2021/09/13 03:17:46;;;;;;;;;;;;;;;23.39;59.09;99494.84;2065340;28;20004;-48
2021/09/13 03:18:46;;;;;;;;;;;;;;;23.38;59.05;99484.06;2053191;28;19980;-48
2021/09/13 03:19:46;;;;;;;;;;;;;;;23.39;59.09;99489.38;2062049;28;20630;-48
2021/09/13 03:20:47;;;;;;;;;;;;;;;23.39;59.12;99489.38;2061264;28;20015;-50
2021/09/13 03:21:47;;;;;;;;;;;;;;;23.39;58.93;99491.25;2061985;28;19924;-48
2021/09/13 03:22:47;;;;;;;;;;;;;;;23.38;59.06;99482.16;2064863;28;20217;-48
2021/09/13 03:23:48;;;;;;;;;;;;;;;23.39;59.01;99503.13;2059989;28;20229;-48
2021/09/13 03:24:48;;;;;;;;;;;;;;;23.40;58.98;99498.50;2059187;28;19979;-48
2021/09/13 03:25:48;;;;;;;;;;;;;;;23.39;58.98;99489.38;2060763;28;19923;-48
2021/09/13 03:26:48;;;;;;;;;;;;;;;23.39;58.88;99494.84;2060713;28;20363;-48
2021/09/13 03:27:49;;;;;;;;;;;;;;;23.40;58.84;99496.59;2060875;28;19923;-48
2021/09/13 03:28:49;;;;;;;;;;;;;;;23.39;58.90;99494.84;2058209;28;19914;-48
2021/09/13 03:29:49;;;;;;;;;;;;;;;23.40;58.83;99496.59;2066416;28;19917;-48
2021/09/13 03:30:51;;;;;;;;;;;;;;;23.40;58.88;99501.25;2065675;28;19987;-48
2021/09/13 03:31:51;;;;;;;;;;;;;;;23.41;58.84;99508.44;2062519;28;20350;-48
2021/09/13 03:32:51;;;;;;;;;;;;;;;23.39;58.90;99500.38;2060885;28;20016;-49
2021/09/13 03:33:52;;;;;;;;;;;;;;;23.40;58.90;99507.59;2059715;28;19964;-48
2021/09/13 03:34:52;;;;;;;;;;;;;;;23.40;58.85;99498.50;2060353;28;20280;-48
2021/09/13 03:35:52;;;;;;;;;;;;;;;23.40;58.93;99501.25;2064171;28;19924;-48
2021/09/13 03:36:54;;;;;;;;;;;;;;;23.42;58.81;99499.13;2056063;28;20317;-48
2021/09/13 03:37:54;;;;;;;;;;;;;;;23.39;58.88;99500.38;2060928;28;19917;-48
2021/09/13 03:38:55;;;;;;;;;;;;;;;23.40;58.84;99504.84;2062952;28;19917;-48
2021/09/13 03:39:55;;;;;;;;;;;;;;;23.38;58.97;99506.91;2062576;28;19949;-50
2021/09/13 03:40:55;;;;;;;;;;;;;;;23.38;58.93;99501.41;2060147;28;19915;-48
2021/09/13 03:41:56;;;;;;;;;;;;;;;23.38;59.07;99497.81;2065137;28;19923;-48
2021/09/13 03:42:56;;;;;;;;;;;;;;;23.37;58.99;99502.47;2068955;28;19952;-48
2021/09/13 03:43:56;;;;;;;;;;;;;;;23.38;59.01;99506.91;2055555;28;19952;-49
2021/09/13 03:44:57;;;;;;;;;;;;;;;23.39;58.96;99505.88;2068375;28;19921;-48
2021/09/13 03:45:57;;;;;;;;;;;;;;;23.39;58.82;99508.63;2056324;28;19914;-48
2021/09/13 03:46:57;;;;;;;;;;;;;;;23.39;59.01;99511.38;2060356;28;20020;-48
2021/09/13 03:47:57;;;;;;;;;;;;;;;23.38;58.98;99506.91;2058700;28;19905;-48
2021/09/13 03:48:58;;;;;;;;;;;;;;;23.39;58.90;99503.13;2058893;28;20394;-48
2021/09/13 03:49:58;;;;;;;;;;;;;;;23.39;58.92;99510.50;2061789;28;19909;-48
2021/09/13 03:50:58;;;;;;;;;;;;;;;23.38;59.02;99506.91;2056150;28;19945;-48
2021/09/13 03:51:59;;;;;;;;;;;;;;;23.39;58.89;99508.63;2058409;28;19913;-48
2021/09/13 03:52:59;;;;;;;;;;;;;;;23.39;58.98;99503.13;2059965;28;19931;-48
2021/09/13 03:54:03;;;;;;;;;;;;;;;23.38;59.04;99509.66;2061851;28;20240;-48
2021/09/13 03:55:04;;;;;;;;;;;;;;;23.38;59.00;99512.41;2062123;28;19909;-48
2021/09/13 03:56:04;;;;;;;;;;;;;;;23.38;58.99;99509.66;2059114;28;19967;-49
2021/09/13 03:57:05;;;;;;;;;;;;;;;23.37;58.94;99505.22;2065047;28;20252;-48
2021/09/13 03:58:06;;;;;;;;;;;;;;;23.38;58.92;99504.16;2059592;28;20379;-48
2021/09/13 03:59:06;;;;;;;;;;;;;;;23.38;58.94;99509.66;2059962;28;19921;-48
2021/09/13 04:00:07;;;;;;;;;;;;;;;23.37;58.98;99505.22;2060990;28;20316;-49
2021/09/13 04:01:07;;;;;;;;;;;;;;;23.38;58.90;99512.41;2057514;28;19913;-48
2021/09/13 04:02:07;;;;;;;;;;;;;;;23.38;59.07;99511.56;2066851;28;19909;-48
2021/09/13 04:03:12;;;;;;;;;;;;;;;23.37;58.99;99513.47;2058810;28;20751;-48
2021/09/13 04:04:15;;;;;;;;;;;;;;;23.38;58.96;99515.16;2055741;28;19987;-48
2021/09/13 04:05:25;;;;;;;;;;;;;;;23.37;59.03;99513.47;2067234;28;20319;-48
2021/09/13 04:06:38;;;;;;;;;;;;;;;23.37;58.96;99518.97;2058665;28;19919;-48
2021/09/13 04:08:07;;;;;;;;;;;;;;;23.37;59.04;99512.59;2060142;28;20407;-50
2021/09/13 04:10:20;;;;;;;;;;;;;;;23.37;58.99;99512.59;2061152;28;19921;-48
2021/09/13 04:11:24;;;;;;;;;;;;;;;23.37;58.87;99507.09;2059603;28;20419;-48
2021/09/13 04:12:25;;;;;;;;;;;;;;;23.36;58.94;99506.25;2057087;28;20399;-48
2021/09/13 04:13:25;;;;;;;;;;;;;;;23.36;59.07;99511.75;2060963;28;19917;-48
2021/09/13 04:14:26;;;;;;;;;;;;;;;23.36;58.99;99517.25;2062746;28;19914;-48
2021/09/13 04:15:26;;;;;;;;;;;;;;;23.36;58.87;99509.00;2059814;28;19923;-48
2021/09/13 04:16:27;;;;;;;;;;;;;;;23.36;59.01;99511.75;2058311;28;19952;-48
2021/09/13 04:17:27;;;;;;;;;;;;;;;23.37;59.04;99507.97;2061060;28;20295;-48
2021/09/13 04:18:28;;;;;;;;;;;;;;;23.37;58.97;99507.09;2058005;28;19921;-48
2021/09/13 04:19:29;;;;;;;;;;;;;;;23.36;59.04;99514.50;2061479;28;19961;-48
2021/09/13 04:20:29;;;;;;;;;;;;;;;23.36;58.96;99505.41;2056365;28;19922;-48
2021/09/13 04:21:29;;;;;;;;;;;;;;;23.36;59.00;99517.25;2061805;28;20008;-48
2021/09/13 04:22:30;;;;;;;;;;;;;;;23.35;58.92;99510.06;2058872;28;19929;-48
2021/09/13 04:23:31;;;;;;;;;;;;;;;23.37;58.98;99513.47;2052916;28;20043;-48
2021/09/13 04:24:31;;;;;;;;;;;;;;;23.35;58.90;99507.31;2061143;28;19920;-48
2021/09/13 04:25:31;;;;;;;;;;;;;;;23.37;58.90;99505.22;2059871;28;19924;-48
2021/09/13 04:26:32;;;;;;;;;;;;;;;23.36;58.89;99506.25;2060856;28;19917;-48
2021/09/13 04:27:32;;;;;;;;;;;;;;;23.36;58.89;99511.75;2057221;28;19956;-48
2021/09/13 04:28:32;;;;;;;;;;;;;;;23.35;58.96;99504.56;2059225;28;20201;-48
2021/09/13 04:29:32;;;;;;;;;;;;;;;23.35;58.96;99499.06;2060127;28;19947;-48
2021/09/13 04:30:33;;;;;;;;;;;;;;;23.36;58.94;99499.91;2057488;28;19940;-48
2021/09/13 04:31:33;;;;;;;;;;;;;;;23.36;58.96;99506.25;2062266;28;19917;-48
2021/09/13 04:32:33;;;;;;;;;;;;;;;23.36;58.88;99500.75;2060415;28;19940;-48
2021/09/13 04:33:34;;;;;;;;;;;;;;;23.36;58.87;99495.25;2066935;28;20671;-48
2021/09/13 04:34:34;;;;;;;;;;;;;;;23.37;58.94;99496.09;2058481;28;20228;-48
2021/09/13 04:35:34;;;;;;;;;;;;;;;23.36;58.94;99495.25;2059519;28;19914;-48
2021/09/13 04:36:35;;;;;;;;;;;;;;;23.35;58.79;99493.56;2062779;28;20398;-48
2021/09/13 04:37:35;;;;;;;;;;;;;;;23.35;58.93;99498.19;2059231;28;19918;-48
2021/09/13 04:38:36;;;;;;;;;;;;;;;23.35;58.90;99493.56;2066230;28;19921;-48
2021/09/13 04:39:36;;;;;;;;;;;;;;;23.36;58.89;99499.91;2066759;28;20224;-48
2021/09/13 04:40:36;;;;;;;;;;;;;;;23.35;58.93;99496.31;2065733;28;19917;-48
2021/09/13 04:41:37;;;;;;;;;;;;;;;23.34;59.00;99502.84;2067893;28;20043;-41
2021/09/13 04:42:37;;;;;;;;;;;;;;;23.35;58.88;99496.31;2059606;28;20372;-42
2021/09/13 04:43:37;;;;;;;;;;;;;;;23.35;58.89;99495.44;2066917;28;19917;-41
2021/09/13 04:44:38;;;;;;;;;;;;;;;23.35;59.04;99498.19;2060922;28;19923;-41
2021/09/13 04:45:38;;;;;;;;;;;;;;;23.35;58.97;99501.81;2063965;28;20240;-41
2021/09/13 04:46:38;;;;;;;;;;;;;;;23.36;58.91;99500.75;2059732;28;19917;-41
2021/09/13 04:47:39;;;;;;;;;;;;;;;23.35;58.93;99493.56;2064311;28;19964;-41
2021/09/13 04:48:40;;;;;;;;;;;;;;;23.35;58.96;99504.56;2062005;28;19917;-41
2021/09/13 04:49:40;;;;;;;;;;;;;;;23.35;58.97;99496.31;2061899;28;19948;-41
2021/09/13 04:50:40;;;;;;;;;;;;;;;23.35;58.89;99496.31;2066999;28;19916;-41
2021/09/13 04:51:40;;;;;;;;;;;;;;;23.35;58.99;99493.56;2060636;28;19963;-41
2021/09/13 04:52:41;;;;;;;;;;;;;;;23.36;58.91;99494.41;2065046;28;19925;-41
2021/09/13 04:53:41;;;;;;;;;;;;;;;23.34;58.93;99494.59;2068661;28;20231;-42
2021/09/13 04:54:41;;;;;;;;;;;;;;;23.36;58.96;99495.25;2061651;28;20320;-42
2021/09/13 04:55:42;;;;;;;;;;;;;;;23.35;58.84;99493.56;2066743;28;20228;-41
2021/09/13 04:56:42;;;;;;;;;;;;;;;23.35;58.90;99485.31;2061395;28;19953;-41
2021/09/13 04:57:42;;;;;;;;;;;;;;;23.36;58.94;99478.75;2060231;28;20044;-41
2021/09/13 04:58:43;;;;;;;;;;;;;;;23.35;58.87;99488.06;2060957;28;19932;-42
2021/09/13 04:59:43;;;;;;;;;;;;;;;23.34;58.95;99491.84;2059165;28;20606;-42
2021/09/13 05:00:43;;;;;;;;;;;;;;;23.34;58.93;99486.34;2060609;28;19917;-42
2021/09/13 05:01:44;;;;;;;;;;;;;;;23.35;58.95;99488.06;2058185;28;19917;-42
2021/09/13 05:02:44;;;;;;;;;;;;;;;23.33;58.96;99490.16;2059943;28;19917;-42
2021/09/13 05:03:44;;;;;;;;;;;;;;;23.33;58.81;99484.66;2064783;28;19917;-42
2021/09/13 05:04:45;;;;;;;;;;;;;;;23.33;58.93;99482.75;2064015;28;19928;-42
2021/09/13 05:05:45;;;;;;;;;;;;;;;23.34;58.82;99475.34;2068678;28;19975;-42
2021/09/13 05:06:45;;;;;;;;;;;;;;;23.35;58.79;99481.69;2058014;28;19918;-42
2021/09/13 05:07:46;;;;;;;;;;;;;;;23.34;58.85;99483.59;2059943;28;19971;-42
2021/09/13 05:08:46;;;;;;;;;;;;;;;23.32;58.83;99478.31;2056291;28;20397;-42
2021/09/13 05:09:47;;;;;;;;;;;;;;;23.33;58.91;99484.66;2064270;28;20190;-41
2021/09/13 05:10:47;;;;;;;;;;;;;;;23.33;58.89;99484.66;2052937;28;20243;-42
2021/09/13 05:11:47;;;;;;;;;;;;;;;23.33;58.90;99490.16;2057108;28;20534;-42
2021/09/13 05:12:48;;;;;;;;;;;;;;;23.32;58.96;99480.19;2066868;28;20710;-41
2021/09/13 05:13:48;;;;;;;;;;;;;;;23.32;58.84;99478.31;2058732;28;19917;-43
2021/09/13 05:14:48;;;;;;;;;;;;;;;23.33;58.78;99479.16;2066159;28;19925;-42
2021/09/13 05:15:49;;;;;;;;;;;;;;;23.33;58.79;99481.91;2058477;28;19914;-41
2021/09/13 05:16:49;;;;;;;;;;;;;;;23.34;58.89;99480.84;2059758;28;20015;-42